sensor_id;sensor_type;location;lat;lon;timestamp;pressure;altitude;pressure_sealevel;temperature;humidity
49645;BME280;36494;50.730;-1.932;2023-02-01T00:01:26;102254.28;;;4.80;100.00
49645;BME280;36494;50.730;-1.932;2023-02-01T00:03:51;102254.79;;;4.80;100.00
49645;BME280;36494;50.730;-1.932;2023-02-01T00:06:17;102258.35;;;4.79;100.00
49645;BME280;36494;50.730;-1.932;2023-02-01T00:08:42;102251.23;;;4.82;100.00
49645;BME280;36494;50.730;-1.932;2023-02-01T00:11:10;102247.39;;;4.81;100.00
49645;BME280;36494;50.730;-1.932;2023-02-01T00:13:35;102246.49;;;4.81;100.00
49645;BME280;36494;50.730;-1.932;2023-02-01T00:16:05;102244.26;;;4.84;100.00
49645;BME280;36494;50.730;-1.932;2023-02-01T00:18:24;102249.32;;;4.83;100.00
49645;BME280;36494;50.730;-1.932;2023-02-01T00:20:49;102248.43;;;4.82;100.00
49645;BME280;36494;50.730;-1.932;2023-02-01T00:23:14;102249.39;;;4.82;100.00
49645;BME280;36494;50.730;-1.932;2023-02-01T00:25:39;102245.61;;;4.79;100.00
49645;BME280;36494;50.730;-1.932;2023-02-01T00:28:05;102242.22;;;4.83;100.00
49645;BME280;36494;50.730;-1.932;2023-02-01T00:30:31;102235.68;;;4.84;100.00
49645;BME280;36494;50.730;-1.932;2023-02-01T00:32:57;102237.42;;;4.85;100.00
49645;BME280;36494;50.730;-1.932;2023-02-01T00:35:22;102239.85;;;4.88;100.00
49645;BME280;36494;50.730;-1.932;2023-02-01T00:37:47;102228.18;;;4.85;100.00
49645;BME280;36494;50.730;-1.932;2023-02-01T00:40:13;102219.17;;;4.85;100.00
49645;BME280;36494;50.730;-1.932;2023-02-01T00:42:38;102212.37;;;4.87;100.00
49645;BME280;36494;50.730;-1.932;2023-02-01T00:45:05;102219.77;;;4.87;100.00
49645;BME280;36494;50.730;-1.932;2023-02-01T00:47:29;102225.88;;;4.89;100.00
49645;BME280;36494;50.730;-1.932;2023-02-01T00:49:55;102221.96;;;4.89;100.00
49645;BME280;36494;50.730;-1.932;2023-02-01T00:52:20;102217.70;;;4.88;100.00
49645;BME280;36494;50.730;-1.932;2023-02-01T00:54:46;102217.11;;;4.89;100.00
49645;BME280;36494;50.730;-1.932;2023-02-01T00:57:12;102220.97;;;4.88;100.00
49645;BME280;36494;50.730;-1.932;2023-02-01T00:59:37;102219.49;;;4.88;100.00
49645;BME280;36494;50.730;-1.932;2023-02-01T01:02:02;102215.05;;;4.90;100.00
49645;BME280;36494;50.730;-1.932;2023-02-01T01:04:28;102215.90;;;4.86;100.00
49645;BME280;36494;50.730;-1.932;2023-02-01T01:06:53;102205.32;;;4.88;100.00
49645;BME280;36494;50.730;-1.932;2023-02-01T01:09:18;102208.22;;;4.87;100.00
49645;BME280;36494;50.730;-1.932;2023-02-01T01:11:43;102214.13;;;4.89;100.00
49645;BME280;36494;50.730;-1.932;2023-02-01T01:14:09;102213.32;;;4.88;100.00
49645;BME280;36494;50.730;-1.932;2023-02-01T01:16:34;102215.00;;;4.91;100.00
49645;BME280;36494;50.730;-1.932;2023-02-01T01:19:00;102208.50;;;4.92;100.00
49645;BME280;36494;50.730;-1.932;2023-02-01T01:21:25;102213.18;;;4.90;100.00
49645;BME280;36494;50.730;-1.932;2023-02-01T01:23:50;102211.13;;;4.87;100.00
49645;BME280;36494;50.730;-1.932;2023-02-01T01:26:17;102207.00;;;4.91;100.00
49645;BME280;36494;50.730;-1.932;2023-02-01T01:28:41;102201.65;;;4.92;100.00
49645;BME280;36494;50.730;-1.932;2023-02-01T01:31:08;102198.51;;;4.91;100.00
49645;BME280;36494;50.730;-1.932;2023-02-01T01:33:31;102193.77;;;4.93;100.00
49645;BME280;36494;50.730;-1.932;2023-02-01T01:35:57;102185.88;;;4.90;100.00
49645;BME280;36494;50.730;-1.932;2023-02-01T01:38:22;102185.03;;;4.91;100.00
49645;BME280;36494;50.730;-1.932;2023-02-01T01:40:47;102170.22;;;4.93;100.00
49645;BME280;36494;50.730;-1.932;2023-02-01T01:43:14;102162.59;;;4.94;100.00
49645;BME280;36494;50.730;-1.932;2023-02-01T01:45:38;102159.06;;;4.89;100.00
49645;BME280;36494;50.730;-1.932;2023-02-01T01:48:07;102165.49;;;4.90;100.00
49645;BME280;36494;50.730;-1.932;2023-02-01T01:50:32;102166.92;;;4.92;100.00
49645;BME280;36494;50.730;-1.932;2023-02-01T01:52:55;102154.89;;;4.95;100.00
49645;BME280;36494;50.730;-1.932;2023-02-01T01:55:20;102153.62;;;4.95;100.00
49645;BME280;36494;50.730;-1.932;2023-02-01T01:57:50;102160.11;;;4.97;100.00
49645;BME280;36494;50.730;-1.932;2023-02-01T02:00:12;102168.51;;;4.90;100.00
49645;BME280;36494;50.730;-1.932;2023-02-01T02:02:36;102161.24;;;4.93;100.00
49645;BME280;36494;50.730;-1.932;2023-02-01T02:05:00;102165.08;;;4.96;100.00
49645;BME280;36494;50.730;-1.932;2023-02-01T02:07:30;102164.56;;;4.95;100.00
49645;BME280;36494;50.730;-1.932;2023-02-01T02:09:51;102169.80;;;4.94;100.00
49645;BME280;36494;50.730;-1.932;2023-02-01T02:12:16;102175.55;;;4.95;100.00
49645;BME280;36494;50.730;-1.932;2023-02-01T02:14:41;102172.59;;;4.95;100.00
49645;BME280;36494;50.730;-1.932;2023-02-01T02:17:19;102170.25;;;4.98;100.00
49645;BME280;36494;50.730;-1.932;2023-02-01T02:22:07;102172.68;;;4.96;100.00
49645;BME280;36494;50.730;-1.932;2023-02-01T02:24:39;102168.79;;;4.96;100.00
49645;BME280;36494;50.730;-1.932;2023-02-01T02:27:07;102171.68;;;4.96;100.00
49645;BME280;36494;50.730;-1.932;2023-02-01T02:31:52;102163.64;;;4.99;100.00
49645;BME280;36494;50.730;-1.932;2023-02-01T02:34:12;102161.64;;;4.99;100.00
49645;BME280;36494;50.730;-1.932;2023-02-01T02:36:37;102160.02;;;4.97;100.00
49645;BME280;36494;50.730;-1.932;2023-02-01T02:39:01;102158.19;;;4.98;100.00
49645;BME280;36494;50.730;-1.932;2023-02-01T02:41:26;102156.89;;;4.99;100.00
49645;BME280;36494;50.730;-1.932;2023-02-01T02:43:52;102159.25;;;5.03;100.00
49645;BME280;36494;50.730;-1.932;2023-02-01T02:46:21;102164.60;;;5.02;100.00
49645;BME280;36494;50.730;-1.932;2023-02-01T02:48:42;102169.01;;;5.00;100.00
49645;BME280;36494;50.730;-1.932;2023-02-01T02:51:06;102166.93;;;5.02;100.00
49645;BME280;36494;50.730;-1.932;2023-02-01T02:53:32;102169.50;;;5.03;100.00
49645;BME280;36494;50.730;-1.932;2023-02-01T02:55:53;102167.45;;;5.03;100.00
49645;BME280;36494;50.730;-1.932;2023-02-01T02:58:19;102167.32;;;5.04;100.00
49645;BME280;36494;50.730;-1.932;2023-02-01T03:00:44;102164.89;;;5.03;100.00
49645;BME280;36494;50.730;-1.932;2023-02-01T03:03:09;102168.30;;;5.02;100.00
49645;BME280;36494;50.730;-1.932;2023-02-01T03:05:35;102167.71;;;4.98;100.00
49645;BME280;36494;50.730;-1.932;2023-02-01T03:08:04;102168.48;;;4.98;100.00
49645;BME280;36494;50.730;-1.932;2023-02-01T03:10:33;102171.63;;;5.02;100.00
49645;BME280;36494;50.730;-1.932;2023-02-01T03:12:51;102172.97;;;5.04;100.00
49645;BME280;36494;50.730;-1.932;2023-02-01T03:15:17;102167.77;;;4.99;100.00
49645;BME280;36494;50.730;-1.932;2023-02-01T03:17:43;102170.48;;;5.01;100.00
49645;BME280;36494;50.730;-1.932;2023-02-01T03:20:09;102175.48;;;5.02;100.00
49645;BME280;36494;50.730;-1.932;2023-02-01T03:22:33;102173.70;;;4.98;100.00
49645;BME280;36494;50.730;-1.932;2023-02-01T03:25:04;102169.95;;;4.98;100.00
49645;BME280;36494;50.730;-1.932;2023-02-01T03:27:27;102168.37;;;5.02;100.00
49645;BME280;36494;50.730;-1.932;2023-02-01T03:29:53;102165.97;;;4.98;100.00
49645;BME280;36494;50.730;-1.932;2023-02-01T03:32:14;102167.88;;;4.99;100.00
49645;BME280;36494;50.730;-1.932;2023-02-01T03:34:40;102169.79;;;4.99;100.00
49645;BME280;36494;50.730;-1.932;2023-02-01T03:37:08;102168.25;;;4.95;100.00
49645;BME280;36494;50.730;-1.932;2023-02-01T03:39:34;102167.39;;;4.98;100.00
49645;BME280;36494;50.730;-1.932;2023-02-01T03:41:58;102169.57;;;5.01;100.00
49645;BME280;36494;50.730;-1.932;2023-02-01T03:44:24;102173.16;;;4.98;100.00
49645;BME280;36494;50.730;-1.932;2023-02-01T03:46:49;102172.48;;;4.95;100.00
49645;BME280;36494;50.730;-1.932;2023-02-01T03:49:18;102175.69;;;4.92;100.00
49645;BME280;36494;50.730;-1.932;2023-02-01T03:51:39;102175.87;;;4.93;100.00
49645;BME280;36494;50.730;-1.932;2023-02-01T03:54:05;102170.45;;;4.90;100.00
49645;BME280;36494;50.730;-1.932;2023-02-01T03:56:29;102171.00;;;4.90;100.00
49645;BME280;36494;50.730;-1.932;2023-02-01T03:58:53;102171.97;;;4.91;100.00
49645;BME280;36494;50.730;-1.932;2023-02-01T04:01:19;102169.24;;;4.93;100.00
49645;BME280;36494;50.730;-1.932;2023-02-01T04:03:44;102169.59;;;4.92;100.00
49645;BME280;36494;50.730;-1.932;2023-02-01T04:06:09;102171.68;;;4.85;100.00
49645;BME280;36494;50.730;-1.932;2023-02-01T04:08:35;102165.83;;;4.89;100.00
49645;BME280;36494;50.730;-1.932;2023-02-01T04:11:01;102160.48;;;4.86;100.00
49645;BME280;36494;50.730;-1.932;2023-02-01T04:13:26;102158.29;;;4.87;100.00
49645;BME280;36494;50.730;-1.932;2023-02-01T04:15:51;102159.43;;;4.89;100.00
49645;BME280;36494;50.730;-1.932;2023-02-01T04:18:16;102161.33;;;4.89;100.00
49645;BME280;36494;50.730;-1.932;2023-02-01T04:20:43;102159.64;;;4.81;100.00
49645;BME280;36494;50.730;-1.932;2023-02-01T04:23:07;102157.32;;;4.85;100.00
49645;BME280;36494;50.730;-1.932;2023-02-01T04:25:33;102154.60;;;4.84;100.00
49645;BME280;36494;50.730;-1.932;2023-02-01T04:27:58;102148.27;;;4.83;100.00
49645;BME280;36494;50.730;-1.932;2023-02-01T04:30:23;102142.28;;;4.79;100.00
49645;BME280;36494;50.730;-1.932;2023-02-01T04:32:48;102141.78;;;4.79;100.00
49645;BME280;36494;50.730;-1.932;2023-02-01T04:35:14;102144.88;;;4.77;100.00
49645;BME280;36494;50.730;-1.932;2023-02-01T04:37:39;102141.54;;;4.74;100.00
49645;BME280;36494;50.730;-1.932;2023-02-01T04:40:05;102146.31;;;4.76;100.00
49645;BME280;36494;50.730;-1.932;2023-02-01T04:42:30;102147.56;;;4.77;100.00
49645;BME280;36494;50.730;-1.932;2023-02-01T04:44:55;102146.96;;;4.76;100.00
49645;BME280;36494;50.730;-1.932;2023-02-01T04:47:20;102151.06;;;4.76;100.00
49645;BME280;36494;50.730;-1.932;2023-02-01T04:49:46;102160.21;;;4.75;100.00
49645;BME280;36494;50.730;-1.932;2023-02-01T04:52:11;102165.05;;;4.73;100.00
49645;BME280;36494;50.730;-1.932;2023-02-01T04:54:37;102160.91;;;4.73;100.00
49645;BME280;36494;50.730;-1.932;2023-02-01T04:57:02;102156.79;;;4.73;100.00
49645;BME280;36494;50.730;-1.932;2023-02-01T04:59:27;102155.91;;;4.73;100.00
49645;BME280;36494;50.730;-1.932;2023-02-01T05:01:53;102158.02;;;4.68;100.00
49645;BME280;36494;50.730;-1.932;2023-02-01T05:04:18;102161.55;;;4.66;100.00
49645;BME280;36494;50.730;-1.932;2023-02-01T05:06:44;102161.95;;;4.65;100.00
49645;BME280;36494;50.730;-1.932;2023-02-01T05:09:10;102167.78;;;4.66;100.00
49645;BME280;36494;50.730;-1.932;2023-02-01T05:11:35;102175.33;;;4.70;100.00
49645;BME280;36494;50.730;-1.932;2023-02-01T05:14:00;102176.74;;;4.69;100.00
49645;BME280;36494;50.730;-1.932;2023-02-01T05:16:26;102173.36;;;4.67;100.00
49645;BME280;36494;50.730;-1.932;2023-02-01T05:18:51;102167.60;;;4.67;100.00
49645;BME280;36494;50.730;-1.932;2023-02-01T05:21:17;102166.56;;;4.63;100.00
49645;BME280;36494;50.730;-1.932;2023-02-01T05:23:42;102166.52;;;4.63;100.00
49645;BME280;36494;50.730;-1.932;2023-02-01T05:26:07;102164.39;;;4.63;100.00
49645;BME280;36494;50.730;-1.932;2023-02-01T05:28:32;102172.58;;;4.64;100.00
49645;BME280;36494;50.730;-1.932;2023-02-01T05:30:57;102176.61;;;4.64;100.00
49645;BME280;36494;50.730;-1.932;2023-02-01T05:33:22;102181.89;;;4.64;100.00
49645;BME280;36494;50.730;-1.932;2023-02-01T05:35:48;102187.09;;;4.66;100.00
49645;BME280;36494;50.730;-1.932;2023-02-01T05:38:13;102194.94;;;4.65;100.00
49645;BME280;36494;50.730;-1.932;2023-02-01T05:40:38;102196.39;;;4.59;100.00
49645;BME280;36494;50.730;-1.932;2023-02-01T05:43:04;102198.75;;;4.64;100.00
49645;BME280;36494;50.730;-1.932;2023-02-01T05:45:29;102197.14;;;4.58;100.00
49645;BME280;36494;50.730;-1.932;2023-02-01T05:47:55;102195.78;;;4.61;100.00
49645;BME280;36494;50.730;-1.932;2023-02-01T05:50:20;102196.32;;;4.59;100.00
49645;BME280;36494;50.730;-1.932;2023-02-01T05:52:46;102196.69;;;4.54;100.00
49645;BME280;36494;50.730;-1.932;2023-02-01T05:55:11;102190.90;;;4.56;100.00
49645;BME280;36494;50.730;-1.932;2023-02-01T05:57:37;102187.45;;;4.57;100.00
49645;BME280;36494;50.730;-1.932;2023-02-01T06:00:03;102180.21;;;4.52;100.00
49645;BME280;36494;50.730;-1.932;2023-02-01T06:02:27;102172.20;;;4.54;100.00
49645;BME280;36494;50.730;-1.932;2023-02-01T06:04:53;102165.11;;;4.51;100.00
49645;BME280;36494;50.730;-1.932;2023-02-01T06:07:18;102152.55;;;4.53;100.00
49645;BME280;36494;50.730;-1.932;2023-02-01T06:09:43;102148.50;;;4.50;100.00
49645;BME280;36494;50.730;-1.932;2023-02-01T06:12:09;102143.57;;;4.51;100.00
49645;BME280;36494;50.730;-1.932;2023-02-01T06:14:34;102141.76;;;4.49;100.00
49645;BME280;36494;50.730;-1.932;2023-02-01T06:16:59;102138.48;;;4.52;100.00
49645;BME280;36494;50.730;-1.932;2023-02-01T06:19:24;102133.17;;;4.50;100.00
49645;BME280;36494;50.730;-1.932;2023-02-01T06:21:50;102139.94;;;4.51;100.00
49645;BME280;36494;50.730;-1.932;2023-02-01T06:24:15;102141.12;;;4.53;100.00
49645;BME280;36494;50.730;-1.932;2023-02-01T06:26:41;102142.95;;;4.52;100.00
49645;BME280;36494;50.730;-1.932;2023-02-01T06:29:06;102134.65;;;4.50;100.00
49645;BME280;36494;50.730;-1.932;2023-02-01T06:31:31;102138.97;;;4.50;100.00
49645;BME280;36494;50.730;-1.932;2023-02-01T06:33:57;102137.21;;;4.49;100.00
49645;BME280;36494;50.730;-1.932;2023-02-01T06:36:22;102131.67;;;4.50;100.00
49645;BME280;36494;50.730;-1.932;2023-02-01T06:38:47;102135.87;;;4.50;100.00
49645;BME280;36494;50.730;-1.932;2023-02-01T06:41:13;102135.02;;;4.53;100.00
49645;BME280;36494;50.730;-1.932;2023-02-01T06:43:38;102126.37;;;4.52;100.00
49645;BME280;36494;50.730;-1.932;2023-02-01T06:46:06;102123.27;;;4.52;100.00
49645;BME280;36494;50.730;-1.932;2023-02-01T06:48:29;102125.11;;;4.48;100.00
49645;BME280;36494;50.730;-1.932;2023-02-01T06:50:54;102133.42;;;4.52;100.00
49645;BME280;36494;50.730;-1.932;2023-02-01T06:53:19;102137.49;;;4.54;100.00
49645;BME280;36494;50.730;-1.932;2023-02-01T06:55:53;102140.21;;;4.56;100.00
49645;BME280;36494;50.730;-1.932;2023-02-01T06:58:10;102142.61;;;4.58;100.00
49645;BME280;36494;50.730;-1.932;2023-02-01T07:00:35;102139.50;;;4.60;100.00
49645;BME280;36494;50.730;-1.932;2023-02-01T07:03:00;102147.44;;;4.61;100.00
49645;BME280;36494;50.730;-1.932;2023-02-01T07:05:26;102147.79;;;4.62;100.00
49645;BME280;36494;50.730;-1.932;2023-02-01T07:07:51;102151.02;;;4.67;100.00
49645;BME280;36494;50.730;-1.932;2023-02-01T07:10:17;102149.08;;;4.66;100.00
49645;BME280;36494;50.730;-1.932;2023-02-01T07:12:43;102153.45;;;4.66;100.00
49645;BME280;36494;50.730;-1.932;2023-02-01T07:15:08;102158.08;;;4.65;100.00
49645;BME280;36494;50.730;-1.932;2023-02-01T07:17:33;102157.88;;;4.67;100.00
49645;BME280;36494;50.730;-1.932;2023-02-01T07:19:59;102160.66;;;4.64;100.00
49645;BME280;36494;50.730;-1.932;2023-02-01T07:22:24;102164.77;;;4.65;100.00
49645;BME280;36494;50.730;-1.932;2023-02-01T07:24:49;102169.60;;;4.65;100.00
49645;BME280;36494;50.730;-1.932;2023-02-01T07:27:15;102171.36;;;4.64;100.00
49645;BME280;36494;50.730;-1.932;2023-02-01T07:29:40;102164.79;;;4.67;100.00
49645;BME280;36494;50.730;-1.932;2023-02-01T07:32:05;102170.79;;;4.72;100.00
49645;BME280;36494;50.730;-1.932;2023-02-01T07:34:30;102173.18;;;4.68;100.00
49645;BME280;36494;50.730;-1.932;2023-02-01T07:36:56;102179.93;;;4.74;100.00
49645;BME280;36494;50.730;-1.932;2023-02-01T07:39:21;102179.65;;;4.76;100.00
49645;BME280;36494;50.730;-1.932;2023-02-01T07:41:46;102179.90;;;4.75;100.00
49645;BME280;36494;50.730;-1.932;2023-02-01T07:44:11;102188.23;;;4.72;100.00
49645;BME280;36494;50.730;-1.932;2023-02-01T07:46:37;102198.42;;;4.69;100.00
49645;BME280;36494;50.730;-1.932;2023-02-01T07:49:02;102203.83;;;4.72;100.00
49645;BME280;36494;50.730;-1.932;2023-02-01T07:51:28;102195.29;;;4.71;100.00
49645;BME280;36494;50.730;-1.932;2023-02-01T07:53:53;102187.83;;;4.70;100.00
49645;BME280;36494;50.730;-1.932;2023-02-01T07:56:20;102186.06;;;4.71;100.00
49645;BME280;36494;50.730;-1.932;2023-02-01T07:58:47;102181.81;;;4.71;100.00
49645;BME280;36494;50.730;-1.932;2023-02-01T08:01:14;102186.08;;;4.69;100.00
49645;BME280;36494;50.730;-1.932;2023-02-01T08:03:35;102186.59;;;4.70;100.00
49645;BME280;36494;50.730;-1.932;2023-02-01T08:06:00;102191.76;;;4.72;100.00
49645;BME280;36494;50.730;-1.932;2023-02-01T08:08:26;102185.99;;;4.74;100.00
49645;BME280;36494;50.730;-1.932;2023-02-01T08:10:56;102182.68;;;4.76;100.00
49645;BME280;36494;50.730;-1.932;2023-02-01T08:13:17;102183.07;;;4.77;100.00
49645;BME280;36494;50.730;-1.932;2023-02-01T08:15:42;102181.44;;;4.79;100.00
49645;BME280;36494;50.730;-1.932;2023-02-01T08:18:07;102182.44;;;4.81;100.00
49645;BME280;36494;50.730;-1.932;2023-02-01T08:20:33;102184.96;;;4.83;100.00
49645;BME280;36494;50.730;-1.932;2023-02-01T08:22:58;102179.41;;;4.79;100.00
49645;BME280;36494;50.730;-1.932;2023-02-01T08:25:24;102171.63;;;4.85;100.00
49645;BME280;36494;50.730;-1.932;2023-02-01T08:27:50;102163.94;;;4.88;100.00
49645;BME280;36494;50.730;-1.932;2023-02-01T08:30:15;102166.61;;;4.91;100.00
49645;BME280;36494;50.730;-1.932;2023-02-01T08:32:40;102173.34;;;4.91;100.00
49645;BME280;36494;50.730;-1.932;2023-02-01T08:35:06;102178.08;;;4.92;100.00
49645;BME280;36494;50.730;-1.932;2023-02-01T08:37:31;102180.94;;;4.97;100.00
49645;BME280;36494;50.730;-1.932;2023-02-01T08:39:56;102187.64;;;4.97;100.00
49645;BME280;36494;50.730;-1.932;2023-02-01T08:42:21;102180.75;;;5.02;100.00
49645;BME280;36494;50.730;-1.932;2023-02-01T08:44:46;102173.82;;;5.05;100.00
49645;BME280;36494;50.730;-1.932;2023-02-01T08:47:12;102186.38;;;5.07;100.00
49645;BME280;36494;50.730;-1.932;2023-02-01T08:49:37;102181.35;;;5.13;100.00
49645;BME280;36494;50.730;-1.932;2023-02-01T08:52:03;102177.65;;;5.17;100.00
49645;BME280;36494;50.730;-1.932;2023-02-01T08:54:28;102177.24;;;5.21;100.00
49645;BME280;36494;50.730;-1.932;2023-02-01T08:56:54;102185.79;;;5.24;100.00
49645;BME280;36494;50.730;-1.932;2023-02-01T08:59:19;102194.46;;;5.27;100.00
49645;BME280;36494;50.730;-1.932;2023-02-01T09:01:45;102199.11;;;5.33;100.00
49645;BME280;36494;50.730;-1.932;2023-02-01T09:04:10;102198.22;;;5.35;100.00
49645;BME280;36494;50.730;-1.932;2023-02-01T09:06:36;102198.51;;;5.38;100.00
49645;BME280;36494;50.730;-1.932;2023-02-01T09:09:01;102184.88;;;5.44;100.00
49645;BME280;36494;50.730;-1.932;2023-02-01T09:11:26;102186.37;;;5.53;100.00
49645;BME280;36494;50.730;-1.932;2023-02-01T09:13:52;102193.08;;;5.57;100.00
49645;BME280;36494;50.730;-1.932;2023-02-01T09:16:17;102192.68;;;5.58;100.00
49645;BME280;36494;50.730;-1.932;2023-02-01T09:18:42;102193.58;;;5.62;100.00
49645;BME280;36494;50.730;-1.932;2023-02-01T09:21:07;102186.98;;;5.69;100.00
49645;BME280;36494;50.730;-1.932;2023-02-01T09:23:33;102183.91;;;5.76;100.00
49645;BME280;36494;50.730;-1.932;2023-02-01T09:25:59;102189.46;;;5.79;100.00
49645;BME280;36494;50.730;-1.932;2023-02-01T09:28:23;102199.33;;;5.84;100.00
49645;BME280;36494;50.730;-1.932;2023-02-01T09:30:49;102199.67;;;5.86;100.00
49645;BME280;36494;50.730;-1.932;2023-02-01T09:33:15;102198.09;;;5.93;100.00
49645;BME280;36494;50.730;-1.932;2023-02-01T09:35:40;102199.78;;;5.99;100.00
49645;BME280;36494;50.730;-1.932;2023-02-01T09:38:06;102204.28;;;6.04;100.00
49645;BME280;36494;50.730;-1.932;2023-02-01T09:40:33;102203.96;;;6.11;100.00
49645;BME280;36494;50.730;-1.932;2023-02-01T09:43:15;102199.81;;;6.20;100.00
49645;BME280;36494;50.730;-1.932;2023-02-01T09:45:29;102199.21;;;6.22;100.00
49645;BME280;36494;50.730;-1.932;2023-02-01T09:47:52;102205.89;;;6.24;100.00
49645;BME280;36494;50.730;-1.932;2023-02-01T09:50:17;102210.60;;;6.28;100.00
49645;BME280;36494;50.730;-1.932;2023-02-01T09:52:44;102211.02;;;6.31;100.00
49645;BME280;36494;50.730;-1.932;2023-02-01T09:55:10;102210.46;;;6.36;100.00
49645;BME280;36494;50.730;-1.932;2023-02-01T09:57:40;102212.17;;;6.41;100.00
49645;BME280;36494;50.730;-1.932;2023-02-01T10:00:00;102206.71;;;6.47;100.00
49645;BME280;36494;50.730;-1.932;2023-02-01T10:02:23;102222.64;;;6.53;100.00
49645;BME280;36494;50.730;-1.932;2023-02-01T10:04:46;102218.80;;;6.63;100.00
49645;BME280;36494;50.730;-1.932;2023-02-01T10:07:21;102223.74;;;6.72;100.00
49645;BME280;36494;50.730;-1.932;2023-02-01T10:09:45;102230.52;;;6.78;100.00
49645;BME280;36494;50.730;-1.932;2023-02-01T10:12:16;102222.51;;;6.85;100.00
49645;BME280;36494;50.730;-1.932;2023-02-01T10:14:38;102225.61;;;6.92;100.00
49645;BME280;36494;50.730;-1.932;2023-02-01T10:16:57;102227.09;;;6.98;100.00
49645;BME280;36494;50.730;-1.932;2023-02-01T10:19:29;102227.20;;;7.02;100.00
49645;BME280;36494;50.730;-1.932;2023-02-01T10:21:52;102227.63;;;7.05;100.00
49645;BME280;36494;50.730;-1.932;2023-02-01T10:24:20;102225.30;;;7.09;100.00
49645;BME280;36494;50.730;-1.932;2023-02-01T10:26:38;102224.98;;;7.12;100.00
49645;BME280;36494;50.730;-1.932;2023-02-01T10:29:01;102228.34;;;7.14;100.00
49645;BME280;36494;50.730;-1.932;2023-02-01T10:31:26;102231.07;;;7.18;100.00
49645;BME280;36494;50.730;-1.932;2023-02-01T10:33:51;102238.63;;;7.21;100.00
49645;BME280;36494;50.730;-1.932;2023-02-01T10:36:18;102243.22;;;7.23;100.00
49645;BME280;36494;50.730;-1.932;2023-02-01T10:38:39;102242.40;;;7.26;100.00
49645;BME280;36494;50.730;-1.932;2023-02-01T10:41:12;102248.17;;;7.29;100.00
49645;BME280;36494;50.730;-1.932;2023-02-01T10:43:30;102248.06;;;7.31;100.00
49645;BME280;36494;50.730;-1.932;2023-02-01T10:45:55;102250.85;;;7.34;100.00
49645;BME280;36494;50.730;-1.932;2023-02-01T10:48:20;102250.91;;;7.39;100.00
49645;BME280;36494;50.730;-1.932;2023-02-01T10:50:51;102242.58;;;7.45;100.00
49645;BME280;36494;50.730;-1.932;2023-02-01T10:53:13;102237.18;;;7.53;100.00
49645;BME280;36494;50.730;-1.932;2023-02-01T10:55:39;102242.76;;;7.57;100.00
49645;BME280;36494;50.730;-1.932;2023-02-01T10:58:04;102242.05;;;7.59;100.00
49645;BME280;36494;50.730;-1.932;2023-02-01T11:00:28;102241.56;;;7.63;100.00
49645;BME280;36494;50.730;-1.932;2023-02-01T11:02:53;102239.54;;;7.72;100.00
49645;BME280;36494;50.730;-1.932;2023-02-01T11:05:18;102233.35;;;7.81;100.00
49645;BME280;36494;50.730;-1.932;2023-02-01T11:07:47;102230.04;;;7.88;100.00
49645;BME280;36494;50.730;-1.932;2023-02-01T11:12:35;102220.23;;;8.03;100.00
49645;BME280;36494;50.730;-1.932;2023-02-01T11:15:11;102223.10;;;8.13;100.00
49645;BME280;36494;50.730;-1.932;2023-02-01T11:17:29;102210.12;;;8.21;100.00
49645;BME280;36494;50.730;-1.932;2023-02-01T11:19:57;102219.16;;;8.31;100.00
49645;BME280;36494;50.730;-1.932;2023-02-01T11:22:16;102220.67;;;8.36;100.00
49645;BME280;36494;50.730;-1.932;2023-02-01T11:24:44;102221.81;;;8.44;100.00
49645;BME280;36494;50.730;-1.932;2023-02-01T11:27:14;102207.54;;;8.52;100.00
49645;BME280;36494;50.730;-1.932;2023-02-01T11:29:36;102209.41;;;8.60;100.00
49645;BME280;36494;50.730;-1.932;2023-02-01T11:31:59;102209.72;;;8.68;100.00
49645;BME280;36494;50.730;-1.932;2023-02-01T11:34:25;102205.91;;;8.76;100.00
49645;BME280;36494;50.730;-1.932;2023-02-01T11:36:49;102208.82;;;8.80;100.00
49645;BME280;36494;50.730;-1.932;2023-02-01T11:39:24;102208.26;;;8.86;100.00
49645;BME280;36494;50.730;-1.932;2023-02-01T11:41:43;102204.07;;;8.96;100.00
49645;BME280;36494;50.730;-1.932;2023-02-01T11:44:19;102204.04;;;9.02;100.00
49645;BME280;36494;50.730;-1.932;2023-02-01T11:46:31;102202.29;;;9.09;100.00
49645;BME280;36494;50.730;-1.932;2023-02-01T11:48:55;102194.20;;;9.13;100.00
49645;BME280;36494;50.730;-1.932;2023-02-01T11:51:31;102202.82;;;9.26;100.00
49645;BME280;36494;50.730;-1.932;2023-02-01T11:53:59;102203.48;;;9.34;100.00
49645;BME280;36494;50.730;-1.932;2023-02-01T11:56:17;102203.62;;;9.42;100.00
49645;BME280;36494;50.730;-1.932;2023-02-01T11:58:47;102196.88;;;9.47;100.00
49645;BME280;36494;50.730;-1.932;2023-02-01T12:01:12;102191.89;;;9.51;100.00
49645;BME280;36494;50.730;-1.932;2023-02-01T12:03:45;102188.80;;;9.50;100.00
49645;BME280;36494;50.730;-1.932;2023-02-01T12:05:57;102192.54;;;9.45;100.00
49645;BME280;36494;50.730;-1.932;2023-02-01T12:08:26;102195.11;;;9.47;100.00
49645;BME280;36494;50.730;-1.932;2023-02-01T12:10:50;102201.41;;;9.48;100.00
49645;BME280;36494;50.730;-1.932;2023-02-01T12:13:17;102199.09;;;9.45;100.00
49645;BME280;36494;50.730;-1.932;2023-02-01T12:15:42;102204.16;;;9.44;100.00
49645;BME280;36494;50.730;-1.932;2023-02-01T12:18:10;102200.39;;;9.51;100.00
49645;BME280;36494;50.730;-1.932;2023-02-01T12:20:35;102201.56;;;9.61;100.00
49645;BME280;36494;50.730;-1.932;2023-02-01T12:22:56;102202.69;;;9.53;100.00
49645;BME280;36494;50.730;-1.932;2023-02-01T12:25:20;102200.76;;;9.58;100.00
49645;BME280;36494;50.730;-1.932;2023-02-01T12:27:56;102195.23;;;9.49;100.00
49645;BME280;36494;50.730;-1.932;2023-02-01T12:30:16;102197.78;;;9.58;100.00
49645;BME280;36494;50.730;-1.932;2023-02-01T12:32:40;102188.78;;;9.66;100.00
49645;BME280;36494;50.730;-1.932;2023-02-01T12:35:13;102191.64;;;9.71;100.00
49645;BME280;36494;50.730;-1.932;2023-02-01T12:37:29;102188.27;;;9.73;100.00